sensor_id;sensor_type;location;lat;lon;timestamp;temperature;humidity
35804;DHT22;21924;51.934;7.414;2023-03-23T00:01:39;10.60;99.90
35804;DHT22;21924;51.934;7.414;2023-03-23T00:04:23;10.60;99.90
35804;DHT22;21924;51.934;7.414;2023-03-23T00:07:10;10.60;99.90
35804;DHT22;21924;51.934;7.414;2023-03-23T00:09:56;10.60;99.90
35804;DHT22;21924;51.934;7.414;2023-03-23T00:12:40;10.60;99.90
35804;DHT22;21924;51.934;7.414;2023-03-23T00:15:26;10.60;99.90
35804;DHT22;21924;51.934;7.414;2023-03-23T00:18:10;10.60;99.90
35804;DHT22;21924;51.934;7.414;2023-03-23T00:21:04;10.60;99.90
35804;DHT22;21924;51.934;7.414;2023-03-23T00:23:54;10.60;99.90
35804;DHT22;21924;51.934;7.414;2023-03-23T00:26:40;10.60;99.90
35804;DHT22;21924;51.934;7.414;2023-03-23T00:29:24;10.60;99.90
35804;DHT22;21924;51.934;7.414;2023-03-23T00:32:10;10.60;99.90
35804;DHT22;21924;51.934;7.414;2023-03-23T00:34:58;10.60;99.90
35804;DHT22;21924;51.934;7.414;2023-03-23T00:37:45;10.60;99.90
35804;DHT22;21924;51.934;7.414;2023-03-23T00:40:29;10.50;99.90
35804;DHT22;21924;51.934;7.414;2023-03-23T00:43:15;10.50;99.90
35804;DHT22;21924;51.934;7.414;2023-03-23T00:46:00;10.50;99.90
35804;DHT22;21924;51.934;7.414;2023-03-23T00:48:45;10.50;99.90
35804;DHT22;21924;51.934;7.414;2023-03-23T00:51:29;10.50;99.90
35804;DHT22;21924;51.934;7.414;2023-03-23T00:54:13;10.40;99.90
35804;DHT22;21924;51.934;7.414;2023-03-23T00:56:57;10.40;99.90
35804;DHT22;21924;51.934;7.414;2023-03-23T00:59:42;10.40;99.90
35804;DHT22;21924;51.934;7.414;2023-03-23T01:02:26;10.40;99.90
35804;DHT22;21924;51.934;7.414;2023-03-23T01:05:11;10.40;99.90
35804;DHT22;21924;51.934;7.414;2023-03-23T01:07:55;10.40;99.90
35804;DHT22;21924;51.934;7.414;2023-03-23T01:10:40;10.40;99.90
35804;DHT22;21924;51.934;7.414;2023-03-23T01:13:24;10.40;99.90
35804;DHT22;21924;51.934;7.414;2023-03-23T01:16:09;10.40;99.90
35804;DHT22;21924;51.934;7.414;2023-03-23T01:18:54;10.40;99.90
35804;DHT22;21924;51.934;7.414;2023-03-23T01:21:39;10.40;99.90
35804;DHT22;21924;51.934;7.414;2023-03-23T01:24:23;10.40;99.90
35804;DHT22;21924;51.934;7.414;2023-03-23T01:27:07;10.40;99.90
35804;DHT22;21924;51.934;7.414;2023-03-23T01:29:51;10.40;99.90
35804;DHT22;21924;51.934;7.414;2023-03-23T01:32:36;10.40;99.90
35804;DHT22;21924;51.934;7.414;2023-03-23T01:35:20;10.40;99.90
35804;DHT22;21924;51.934;7.414;2023-03-23T01:38:04;10.40;99.90
35804;DHT22;21924;51.934;7.414;2023-03-23T01:40:48;10.40;99.90
35804;DHT22;21924;51.934;7.414;2023-03-23T01:43:32;10.40;99.90
35804;DHT22;21924;51.934;7.414;2023-03-23T01:46:17;10.40;99.90
35804;DHT22;21924;51.934;7.414;2023-03-23T01:49:10;10.40;99.90
35804;DHT22;21924;51.934;7.414;2023-03-23T01:52:04;10.40;99.90
35804;DHT22;21924;51.934;7.414;2023-03-23T01:54:52;10.40;99.90
35804;DHT22;21924;51.934;7.414;2023-03-23T01:57:39;10.40;99.90
35804;DHT22;21924;51.934;7.414;2023-03-23T02:00:24;10.40;99.90
35804;DHT22;21924;51.934;7.414;2023-03-23T02:03:09;10.40;99.90
35804;DHT22;21924;51.934;7.414;2023-03-23T02:05:57;10.40;99.90
35804;DHT22;21924;51.934;7.414;2023-03-23T02:08:45;10.50;99.90
35804;DHT22;21924;51.934;7.414;2023-03-23T02:11:32;10.40;99.90
35804;DHT22;21924;51.934;7.414;2023-03-23T02:14:17;10.40;99.90
35804;DHT22;21924;51.934;7.414;2023-03-23T02:20:23;10.40;99.90
35804;DHT22;21924;51.934;7.414;2023-03-23T02:26:31;10.50;99.90
35804;DHT22;21924;51.934;7.414;2023-03-23T02:29:33;10.60;99.90
35804;DHT22;21924;51.934;7.414;2023-03-23T02:35:54;10.60;99.90
35804;DHT22;21924;51.934;7.414;2023-03-23T02:41:54;10.70;99.90
35804;DHT22;21924;51.934;7.414;2023-03-23T02:44:41;10.70;99.90
35804;DHT22;21924;51.934;7.414;2023-03-23T02:47:27;10.70;99.90
35804;DHT22;21924;51.934;7.414;2023-03-23T02:50:14;10.70;99.90
35804;DHT22;21924;51.934;7.414;2023-03-23T02:53:00;10.80;99.90
35804;DHT22;21924;51.934;7.414;2023-03-23T02:55:45;10.80;99.90
35804;DHT22;21924;51.934;7.414;2023-03-23T02:58:30;10.80;99.90
35804;DHT22;21924;51.934;7.414;2023-03-23T03:04:15;10.80;99.90
35804;DHT22;21924;51.934;7.414;2023-03-23T03:10:04;10.90;99.90
35804;DHT22;21924;51.934;7.414;2023-03-23T03:13:04;10.80;99.90
35804;DHT22;21924;51.934;7.414;2023-03-23T03:18:47;10.80;99.90
35804;DHT22;21924;51.934;7.414;2023-03-23T03:21:37;10.80;99.90
35804;DHT22;21924;51.934;7.414;2023-03-23T03:24:24;10.80;99.90
35804;DHT22;21924;51.934;7.414;2023-03-23T03:27:15;10.70;99.90
35804;DHT22;21924;51.934;7.414;2023-03-23T03:30:03;10.70;99.90
35804;DHT22;21924;51.934;7.414;2023-03-23T03:32:50;10.70;99.90
35804;DHT22;21924;51.934;7.414;2023-03-23T03:35:38;10.70;99.90
35804;DHT22;21924;51.934;7.414;2023-03-23T03:38:25;10.80;99.90
35804;DHT22;21924;51.934;7.414;2023-03-23T03:41:10;10.80;99.90
35804;DHT22;21924;51.934;7.414;2023-03-23T03:43:54;10.80;99.90
35804;DHT22;21924;51.934;7.414;2023-03-23T03:46:38;10.80;99.90
35804;DHT22;21924;51.934;7.414;2023-03-23T03:49:23;10.80;99.90
35804;DHT22;21924;51.934;7.414;2023-03-23T03:52:07;10.80;99.90
35804;DHT22;21924;51.934;7.414;2023-03-23T03:54:52;10.80;99.90
35804;DHT22;21924;51.934;7.414;2023-03-23T03:57:36;10.90;99.90
35804;DHT22;21924;51.934;7.414;2023-03-23T04:00:21;10.90;99.90
35804;DHT22;21924;51.934;7.414;2023-03-23T04:03:06;10.90;99.90
35804;DHT22;21924;51.934;7.414;2023-03-23T04:05:51;11.00;99.90
35804;DHT22;21924;51.934;7.414;2023-03-23T04:08:36;11.00;99.90
35804;DHT22;21924;51.934;7.414;2023-03-23T04:11:21;11.00;99.90
35804;DHT22;21924;51.934;7.414;2023-03-23T04:14:06;11.00;99.90
35804;DHT22;21924;51.934;7.414;2023-03-23T04:16:50;11.10;99.90
35804;DHT22;21924;51.934;7.414;2023-03-23T04:19:40;11.10;99.90
35804;DHT22;21924;51.934;7.414;2023-03-23T04:22:25;11.10;99.90
35804;DHT22;21924;51.934;7.414;2023-03-23T04:25:13;11.10;99.90
35804;DHT22;21924;51.934;7.414;2023-03-23T04:27:58;11.20;99.90
35804;DHT22;21924;51.934;7.414;2023-03-23T04:30:46;11.10;99.90
35804;DHT22;21924;51.934;7.414;2023-03-23T04:33:32;11.20;99.90
35804;DHT22;21924;51.934;7.414;2023-03-23T04:36:17;11.20;99.90
35804;DHT22;21924;51.934;7.414;2023-03-23T04:39:01;11.20;99.90
35804;DHT22;21924;51.934;7.414;2023-03-23T04:41:50;11.20;99.90
35804;DHT22;21924;51.934;7.414;2023-03-23T04:44:35;11.20;99.90
35804;DHT22;21924;51.934;7.414;2023-03-23T04:47:19;11.20;99.90
35804;DHT22;21924;51.934;7.414;2023-03-23T04:50:04;11.20;99.90
35804;DHT22;21924;51.934;7.414;2023-03-23T04:52:50;11.20;99.90
35804;DHT22;21924;51.934;7.414;2023-03-23T04:55:36;11.20;99.90
35804;DHT22;21924;51.934;7.414;2023-03-23T04:58:21;11.20;99.90
35804;DHT22;21924;51.934;7.414;2023-03-23T05:01:07;11.20;99.90
35804;DHT22;21924;51.934;7.414;2023-03-23T05:03:51;11.20;99.90
35804;DHT22;21924;51.934;7.414;2023-03-23T05:06:35;11.20;99.90
35804;DHT22;21924;51.934;7.414;2023-03-23T05:09:20;11.20;99.90
35804;DHT22;21924;51.934;7.414;2023-03-23T05:12:06;11.20;99.90
35804;DHT22;21924;51.934;7.414;2023-03-23T05:14:51;11.20;99.90
35804;DHT22;21924;51.934;7.414;2023-03-23T05:17:36;11.20;99.90
35804;DHT22;21924;51.934;7.414;2023-03-23T05:20:20;11.20;99.90
35804;DHT22;21924;51.934;7.414;2023-03-23T05:23:06;11.30;99.90
35804;DHT22;21924;51.934;7.414;2023-03-23T05:25:54;11.30;99.90
35804;DHT22;21924;51.934;7.414;2023-03-23T05:28:38;11.30;99.90
35804;DHT22;21924;51.934;7.414;2023-03-23T05:31:25;11.40;99.90
35804;DHT22;21924;51.934;7.414;2023-03-23T05:34:10;11.30;99.90
35804;DHT22;21924;51.934;7.414;2023-03-23T05:36:56;11.30;99.90
35804;DHT22;21924;51.934;7.414;2023-03-23T05:39:41;11.30;99.90
35804;DHT22;21924;51.934;7.414;2023-03-23T05:42:25;11.30;99.90
35804;DHT22;21924;51.934;7.414;2023-03-23T05:45:10;11.30;99.90
35804;DHT22;21924;51.934;7.414;2023-03-23T05:47:55;11.30;99.90
35804;DHT22;21924;51.934;7.414;2023-03-23T05:50:40;11.30;99.90
35804;DHT22;21924;51.934;7.414;2023-03-23T05:53:25;11.40;99.90
35804;DHT22;21924;51.934;7.414;2023-03-23T05:56:09;11.50;99.90
35804;DHT22;21924;51.934;7.414;2023-03-23T05:58:54;11.50;99.90
35804;DHT22;21924;51.934;7.414;2023-03-23T06:01:38;11.50;99.90
35804;DHT22;21924;51.934;7.414;2023-03-23T06:04:23;11.50;99.90
35804;DHT22;21924;51.934;7.414;2023-03-23T06:07:09;11.60;99.90
35804;DHT22;21924;51.934;7.414;2023-03-23T06:09:58;11.60;99.90
35804;DHT22;21924;51.934;7.414;2023-03-23T06:12:42;11.60;99.90
35804;DHT22;21924;51.934;7.414;2023-03-23T06:15:27;11.50;99.90
35804;DHT22;21924;51.934;7.414;2023-03-23T06:18:16;11.50;99.90
35804;DHT22;21924;51.934;7.414;2023-03-23T06:21:00;11.60;99.90
35804;DHT22;21924;51.934;7.414;2023-03-23T06:23:45;11.60;99.90
35804;DHT22;21924;51.934;7.414;2023-03-23T06:26:32;11.60;99.90
35804;DHT22;21924;51.934;7.414;2023-03-23T06:29:17;11.70;99.90
35804;DHT22;21924;51.934;7.414;2023-03-23T06:32:02;11.70;99.90
35804;DHT22;21924;51.934;7.414;2023-03-23T06:34:47;11.60;99.90
35804;DHT22;21924;51.934;7.414;2023-03-23T06:37:31;11.60;99.90
35804;DHT22;21924;51.934;7.414;2023-03-23T06:40:16;11.60;99.90
35804;DHT22;21924;51.934;7.414;2023-03-23T06:43:03;11.70;99.90
35804;DHT22;21924;51.934;7.414;2023-03-23T06:45:50;11.70;99.90
35804;DHT22;21924;51.934;7.414;2023-03-23T06:48:35;11.80;99.90
35804;DHT22;21924;51.934;7.414;2023-03-23T06:51:19;11.80;99.90
35804;DHT22;21924;51.934;7.414;2023-03-23T06:54:04;11.80;99.90
35804;DHT22;21924;51.934;7.414;2023-03-23T06:56:49;11.90;99.90
35804;DHT22;21924;51.934;7.414;2023-03-23T06:59:33;11.90;99.90
35804;DHT22;21924;51.934;7.414;2023-03-23T07:02:17;11.90;99.90
35804;DHT22;21924;51.934;7.414;2023-03-23T07:05:02;11.90;99.90
35804;DHT22;21924;51.934;7.414;2023-03-23T07:07:47;12.00;99.90
35804;DHT22;21924;51.934;7.414;2023-03-23T07:10:32;12.00;99.90
35804;DHT22;21924;51.934;7.414;2023-03-23T07:13:17;12.00;99.90
35804;DHT22;21924;51.934;7.414;2023-03-23T07:16:04;11.90;99.90
35804;DHT22;21924;51.934;7.414;2023-03-23T07:18:50;11.90;99.90
35804;DHT22;21924;51.934;7.414;2023-03-23T07:21:34;12.00;99.90
35804;DHT22;21924;51.934;7.414;2023-03-23T07:24:19;12.00;99.90
35804;DHT22;21924;51.934;7.414;2023-03-23T07:27:03;12.10;99.90
35804;DHT22;21924;51.934;7.414;2023-03-23T07:29:48;12.20;99.90
35804;DHT22;21924;51.934;7.414;2023-03-23T07:32:32;12.30;99.90
35804;DHT22;21924;51.934;7.414;2023-03-23T07:35:16;12.30;99.90
35804;DHT22;21924;51.934;7.414;2023-03-23T07:38:02;12.30;99.90
35804;DHT22;21924;51.934;7.414;2023-03-23T07:40:46;12.30;99.90
35804;DHT22;21924;51.934;7.414;2023-03-23T07:43:31;12.30;99.90
35804;DHT22;21924;51.934;7.414;2023-03-23T07:46:16;12.30;99.90
35804;DHT22;21924;51.934;7.414;2023-03-23T07:49:00;12.30;99.90
35804;DHT22;21924;51.934;7.414;2023-03-23T07:51:48;12.30;99.90
35804;DHT22;21924;51.934;7.414;2023-03-23T07:54:33;12.30;99.90
35804;DHT22;21924;51.934;7.414;2023-03-23T07:57:17;12.20;99.90
35804;DHT22;21924;51.934;7.414;2023-03-23T08:00:02;12.30;99.90
35804;DHT22;21924;51.934;7.414;2023-03-23T08:03:05;12.30;99.90
35804;DHT22;21924;51.934;7.414;2023-03-23T08:05:50;12.40;99.90
35804;DHT22;21924;51.934;7.414;2023-03-23T08:08:34;12.40;99.90
35804;DHT22;21924;51.934;7.414;2023-03-23T08:11:19;12.50;99.90
35804;DHT22;21924;51.934;7.414;2023-03-23T08:14:04;12.50;99.90
35804;DHT22;21924;51.934;7.414;2023-03-23T08:16:49;12.60;99.90
35804;DHT22;21924;51.934;7.414;2023-03-23T08:19:33;12.70;99.90
35804;DHT22;21924;51.934;7.414;2023-03-23T08:22:20;12.80;99.90
35804;DHT22;21924;51.934;7.414;2023-03-23T08:25:06;12.80;99.90
35804;DHT22;21924;51.934;7.414;2023-03-23T08:27:51;12.90;99.90
35804;DHT22;21924;51.934;7.414;2023-03-23T08:30:38;13.00;99.90
35804;DHT22;21924;51.934;7.414;2023-03-23T08:33:22;12.90;99.90
35804;DHT22;21924;51.934;7.414;2023-03-23T08:36:06;12.90;99.90
35804;DHT22;21924;51.934;7.414;2023-03-23T08:38:51;13.00;99.90
35804;DHT22;21924;51.934;7.414;2023-03-23T08:41:36;13.10;99.90
35804;DHT22;21924;51.934;7.414;2023-03-23T08:44:21;13.20;99.90
35804;DHT22;21924;51.934;7.414;2023-03-23T08:47:05;13.20;99.90
35804;DHT22;21924;51.934;7.414;2023-03-23T08:49:51;13.20;99.90
35804;DHT22;21924;51.934;7.414;2023-03-23T08:52:37;13.00;99.90
35804;DHT22;21924;51.934;7.414;2023-03-23T08:55:22;12.90;99.90
35804;DHT22;21924;51.934;7.414;2023-03-23T08:58:06;12.80;99.90
35804;DHT22;21924;51.934;7.414;2023-03-23T09:00:51;12.60;99.90
35804;DHT22;21924;51.934;7.414;2023-03-23T09:03:37;12.50;99.90
35804;DHT22;21924;51.934;7.414;2023-03-23T09:06:23;12.40;99.90
35804;DHT22;21924;51.934;7.414;2023-03-23T09:09:07;12.30;99.90
35804;DHT22;21924;51.934;7.414;2023-03-23T09:11:53;12.10;99.90
35804;DHT22;21924;51.934;7.414;2023-03-23T09:14:38;12.00;99.90
35804;DHT22;21924;51.934;7.414;2023-03-23T09:17:22;11.90;99.90
35804;DHT22;21924;51.934;7.414;2023-03-23T09:20:07;11.90;99.90
35804;DHT22;21924;51.934;7.414;2023-03-23T09:22:56;11.80;99.90
35804;DHT22;21924;51.934;7.414;2023-03-23T09:25:41;11.70;99.90
35804;DHT22;21924;51.934;7.414;2023-03-23T09:28:25;11.70;99.90
35804;DHT22;21924;51.934;7.414;2023-03-23T09:31:09;11.60;99.90
35804;DHT22;21924;51.934;7.414;2023-03-23T09:33:55;11.20;99.90
35804;DHT22;21924;51.934;7.414;2023-03-23T09:36:41;10.90;99.90
35804;DHT22;21924;51.934;7.414;2023-03-23T09:39:27;10.50;99.90
35804;DHT22;21924;51.934;7.414;2023-03-23T09:51:41;9.80;99.90
35804;DHT22;21924;51.934;7.414;2023-03-23T09:54:39;9.90;99.90
35804;DHT22;21924;51.934;7.414;2023-03-23T09:57:47;9.80;99.90
35804;DHT22;21924;51.934;7.414;2023-03-23T10:00:47;9.90;99.90
35804;DHT22;21924;51.934;7.414;2023-03-23T10:03:43;10.10;99.90
35804;DHT22;21924;51.934;7.414;2023-03-23T10:06:27;10.20;99.90
35804;DHT22;21924;51.934;7.414;2023-03-23T10:09:15;10.20;99.90
35804;DHT22;21924;51.934;7.414;2023-03-23T10:12:10;10.40;99.90
35804;DHT22;21924;51.934;7.414;2023-03-23T10:20:58;10.60;99.90
35804;DHT22;21924;51.934;7.414;2023-03-23T10:27:06;10.70;99.90
35804;DHT22;21924;51.934;7.414;2023-03-23T10:30:17;10.60;99.90
35804;DHT22;21924;51.934;7.414;2023-03-23T10:36:21;10.80;99.90
35804;DHT22;21924;51.934;7.414;2023-03-23T10:39:15;11.00;99.90
35804;DHT22;21924;51.934;7.414;2023-03-23T10:42:01;11.30;99.90
35804;DHT22;21924;51.934;7.414;2023-03-23T10:44:51;11.60;99.90
35804;DHT22;21924;51.934;7.414;2023-03-23T10:47:38;11.70;99.90
35804;DHT22;21924;51.934;7.414;2023-03-23T10:50:27;11.60;99.90
35804;DHT22;21924;51.934;7.414;2023-03-23T10:53:17;11.50;99.90
35804;DHT22;21924;51.934;7.414;2023-03-23T10:56:05;11.40;99.90
35804;DHT22;21924;51.934;7.414;2023-03-23T10:58:51;11.30;99.90
35804;DHT22;21924;51.934;7.414;2023-03-23T11:01:35;11.30;99.90
35804;DHT22;21924;51.934;7.414;2023-03-23T11:04:22;11.30;99.90
35804;DHT22;21924;51.934;7.414;2023-03-23T11:07:12;11.30;99.90
35804;DHT22;21924;51.934;7.414;2023-03-23T11:10:18;11.40;99.90
35804;DHT22;21924;51.934;7.414;2023-03-23T11:13:14;11.30;99.90
35804;DHT22;21924;51.934;7.414;2023-03-23T11:15:59;11.40;99.90
35804;DHT22;21924;51.934;7.414;2023-03-23T11:18:44;11.60;99.90
35804;DHT22;21924;51.934;7.414;2023-03-23T11:21:28;11.50;99.90
35804;DHT22;21924;51.934;7.414;2023-03-23T11:24:12;11.60;99.90
35804;DHT22;21924;51.934;7.414;2023-03-23T11:26:57;11.60;99.90
35804;DHT22;21924;51.934;7.414;2023-03-23T11:30:09;11.50;99.90
35804;DHT22;21924;51.934;7.414;2023-03-23T11:32:55;11.40;99.90
35804;DHT22;21924;51.934;7.414;2023-03-23T11:35:45;11.30;99.90
35804;DHT22;21924;51.934;7.414;2023-03-23T11:38:30;11.40;99.90
35804;DHT22;21924;51.934;7.414;2023-03-23T11:41:18;11.50;99.90
35804;DHT22;21924;51.934;7.414;2023-03-23T11:44:09;11.60;99.90
35804;DHT22;21924;51.934;7.414;2023-03-23T11:47:04;11.70;99.90
35804;DHT22;21924;51.934;7.414;2023-03-23T11:49:57;11.90;99.90
35804;DHT22;21924;51.934;7.414;2023-03-23T11:58:41;12.40;99.90
35804;DHT22;21924;51.934;7.414;2023-03-23T12:04:56;12.70;99.90
35804;DHT22;21924;51.934;7.414;2023-03-23T12:13:21;12.80;99.90
35804;DHT22;21924;51.934;7.414;2023-03-23T12:16:33;12.90;99.90
35804;DHT22;21924;51.934;7.414;2023-03-23T12:19:31;12.80;99.90
35804;DHT22;21924;51.934;7.414;2023-03-23T12:38:10;14.00;99.90
35804;DHT22;21924;51.934;7.414;2023-03-23T12:43:58;14.50;99.90
35804;DHT22;21924;51.934;7.414;2023-03-23T12:47:17;14.50;99.90
35804;DHT22;21924;51.934;7.414;2023-03-23T12:53:11;14.10;99.90
35804;DHT22;21924;51.934;7.414;2023-03-23T12:56:26;14.00;99.90
35804;DHT22;21924;51.934;7.414;2023-03-23T13:02:32;14.40;99.90
35804;DHT22;21924;51.934;7.414;2023-03-23T13:08:17;14.00;99.90
35804;DHT22;21924;51.934;7.414;2023-03-23T13:11:11;14.00;99.90
35804;DHT22;21924;51.934;7.414;2023-03-23T13:17:39;13.70;99.90
35804;DHT22;21924;51.934;7.414;2023-03-23T13:20:43;13.60;99.90
35804;DHT22;21924;51.934;7.414;2023-03-23T13:23:39;13.70;99.90
35804;DHT22;21924;51.934;7.414;2023-03-23T13:26:24;14.10;99.90
35804;DHT22;21924;51.934;7.414;2023-03-23T13:29:18;14.20;99.90
35804;DHT22;21924;51.934;7.414;2023-03-23T13:32:17;14.30;99.90
35804;DHT22;21924;51.934;7.414;2023-03-23T13:35:12;14.50;99.90
35804;DHT22;21924;51.934;7.414;2023-03-23T13:37:57;14.40;99.90
35804;DHT22;21924;51.934;7.414;2023-03-23T13:40:43;14.50;99.90
35804;DHT22;21924;51.934;7.414;2023-03-23T13:43:32;14.80;99.90
35804;DHT22;21924;51.934;7.414;2023-03-23T13:52:01;15.20;99.90
35804;DHT22;21924;51.934;7.414;2023-03-23T13:54:47;15.30;99.90
35804;DHT22;21924;51.934;7.414;2023-03-23T13:57:53;15.30;99.90
35804;DHT22;21924;51.934;7.414;2023-03-23T14:00:48;15.20;99.90
35804;DHT22;21924;51.934;7.414;2023-03-23T14:03:39;15.10;99.90
35804;DHT22;21924;51.934;7.414;2023-03-23T14:06:24;14.80;99.90
35804;DHT22;21924;51.934;7.414;2023-03-23T14:09:29;14.70;99.90
35804;DHT22;21924;51.934;7.414;2023-03-23T14:12:20;14.30;99.90
35804;DHT22;21924;51.934;7.414;2023-03-23T14:15:11;14.10;99.90
35804;DHT22;21924;51.934;7.414;2023-03-23T14:17:57;13.90;99.90
35804;DHT22;21924;51.934;7.414;2023-03-23T14:20:46;13.80;99.90
35804;DHT22;21924;51.934;7.414;2023-03-23T14:23:32;13.90;99.90
35804;DHT22;21924;51.934;7.414;2023-03-23T14:26:19;13.90;99.90
35804;DHT22;21924;51.934;7.414;2023-03-23T14:29:05;13.80;99.90
35804;DHT22;21924;51.934;7.414;2023-03-23T14:31:56;13.70;99.90
35804;DHT22;21924;51.934;7.414;2023-03-23T14:34:42;13.70;99.90
35804;DHT22;21924;51.934;7.414;2023-03-23T14:37:27;13.90;99.90
35804;DHT22;21924;51.934;7.414;2023-03-23T14:40:15;14.30;99.90
35804;DHT22;21924;51.934;7.414;2023-03-23T14:42:59;14.50;99.90
35804;DHT22;21924;51.934;7.414;2023-03-23T14:45:47;14.50;99.90
35804;DHT22;21924;51.934;7.414;2023-03-23T14:48:31;14.50;99.90
35804;DHT22;21924;51.934;7.414;2023-03-23T14:51:20;14.50;99.90
35804;DHT22;21924;51.934;7.414;2023-03-23T14:54:07;14.60;99.90
35804;DHT22;21924;51.934;7.414;2023-03-23T14:56:52;14.60;99.90
35804;DHT22;21924;51.934;7.414;2023-03-23T14:59:36;14.70;99.90
35804;DHT22;21924;51.934;7.414;2023-03-23T15:02:33;14.70;99.90
35804;DHT22;21924;51.934;7.414;2023-03-23T15:05:27;14.70;99.90
35804;DHT22;21924;51.934;7.414;2023-03-23T15:08:25;14.50;99.90
35804;DHT22;21924;51.934;7.414;2023-03-23T15:11:21;14.40;99.90
35804;DHT22;21924;51.934;7.414;2023-03-23T15:14:21;14.40;99.90
35804;DHT22;21924;51.934;7.414;2023-03-23T15:17:16;14.60;99.90
35804;DHT22;21924;51.934;7.414;2023-03-23T15:20:10;14.80;99.90
35804;DHT22;21924;51.934;7.414;2023-03-23T15:22:56;14.80;99.90
35804;DHT22;21924;51.934;7.414;2023-03-23T15:25:51;14.70;99.90
35804;DHT22;21924;51.934;7.414;2023-03-23T15:28:40;14.50;99.90
35804;DHT22;21924;51.934;7.414;2023-03-23T15:31:24;14.60;99.90
35804;DHT22;21924;51.934;7.414;2023-03-23T15:34:31;14.50;99.90
35804;DHT22;21924;51.934;7.414;2023-03-23T15:37:24;14.70;99.90
35804;DHT22;21924;51.934;7.414;2023-03-23T15:40:23;14.70;99.90
35804;DHT22;21924;51.934;7.414;2023-03-23T15:43:28;14.60;99.90
35804;DHT22;21924;51.934;7.414;2023-03-23T15:51:43;14.00;99.90
35804;DHT22;21924;51.934;7.414;2023-03-23T15:54:30;13.90;99.90
35804;DHT22;21924;51.934;7.414;2023-03-23T15:57:15;13.90;99.90
35804;DHT22;21924;51.934;7.414;2023-03-23T15:59:59;13.80;99.90
35804;DHT22;21924;51.934;7.414;2023-03-23T16:02:45;13.70;99.90
35804;DHT22;21924;51.934;7.414;2023-03-23T16:05:30;13.50;99.90
35804;DHT22;21924;51.934;7.414;2023-03-23T16:08:15;13.40;99.90
35804;DHT22;21924;51.934;7.414;2023-03-23T16:10:59;13.30;99.90
35804;DHT22;21924;51.934;7.414;2023-03-23T16:13:44;13.20;99.90
35804;DHT22;21924;51.934;7.414;2023-03-23T16:16:33;13.20;99.90
35804;DHT22;21924;51.934;7.414;2023-03-23T16:19:18;13.10;99.90
35804;DHT22;21924;51.934;7.414;2023-03-23T16:22:08;13.10;99.90
35804;DHT22;21924;51.934;7.414;2023-03-23T16:24:52;13.00;99.90
35804;DHT22;21924;51.934;7.414;2023-03-23T16:27:38;13.00;99.90
35804;DHT22;21924;51.934;7.414;2023-03-23T16:30:25;13.00;99.90
35804;DHT22;21924;51.934;7.414;2023-03-23T16:33:10;12.90;99.90
35804;DHT22;21924;51.934;7.414;2023-03-23T16:35:54;12.90;99.90
35804;DHT22;21924;51.934;7.414;2023-03-23T16:38:41;12.90;99.90
35804;DHT22;21924;51.934;7.414;2023-03-23T16:41:25;13.00;99.90
35804;DHT22;21924;51.934;7.414;2023-03-23T16:44:09;12.90;99.90
35804;DHT22;21924;51.934;7.414;2023-03-23T16:46:53;12.90;99.90
35804;DHT22;21924;51.934;7.414;2023-03-23T16:49:37;12.80;99.90
35804;DHT22;21924;51.934;7.414;2023-03-23T16:52:21;12.70;99.90
35804;DHT22;21924;51.934;7.414;2023-03-23T16:55:07;12.70;99.90
35804;DHT22;21924;51.934;7.414;2023-03-23T16:57:53;12.60;99.90
35804;DHT22;21924;51.934;7.414;2023-03-23T17:00:38;12.50;99.90
35804;DHT22;21924;51.934;7.414;2023-03-23T17:03:24;12.40;99.90
35804;DHT22;21924;51.934;7.414;2023-03-23T17:06:08;12.30;99.90
35804;DHT22;21924;51.934;7.414;2023-03-23T17:08:52;12.30;99.90
35804;DHT22;21924;51.934;7.414;2023-03-23T17:11:36;12.30;99.90
35804;DHT22;21924;51.934;7.414;2023-03-23T17:14:21;12.30;99.90
35804;DHT22;21924;51.934;7.414;2023-03-23T17:17:05;12.20;99.90
35804;DHT22;21924;51.934;7.414;2023-03-23T17:19:50;12.20;99.90
35804;DHT22;21924;51.934;7.414;2023-03-23T17:22:35;12.20;99.90
35804;DHT22;21924;51.934;7.414;2023-03-23T17:25:20;12.10;99.90
35804;DHT22;21924;51.934;7.414;2023-03-23T17:28:04;12.10;99.90
35804;DHT22;21924;51.934;7.414;2023-03-23T17:30:50;12.00;99.90
35804;DHT22;21924;51.934;7.414;2023-03-23T17:33:35;11.90;99.90
35804;DHT22;21924;51.934;7.414;2023-03-23T17:36:19;11.90;99.90
35804;DHT22;21924;51.934;7.414;2023-03-23T17:39:04;11.90;99.90
35804;DHT22;21924;51.934;7.414;2023-03-23T17:41:48;11.80;99.90
35804;DHT22;21924;51.934;7.414;2023-03-23T17:44:32;11.80;99.90
35804;DHT22;21924;51.934;7.414;2023-03-23T17:47:17;11.80;99.90
35804;DHT22;21924;51.934;7.414;2023-03-23T17:50:02;11.90;99.90
35804;DHT22;21924;51.934;7.414;2023-03-23T17:52:46;11.80;99.90
35804;DHT22;21924;51.934;7.414;2023-03-23T17:55:32;11.80;99.90
35804;DHT22;21924;51.934;7.414;2023-03-23T17:58:16;11.70;99.90
35804;DHT22;21924;51.934;7.414;2023-03-23T18:01:01;11.60;99.90
35804;DHT22;21924;51.934;7.414;2023-03-23T18:03:46;11.50;99.90
35804;DHT22;21924;51.934;7.414;2023-03-23T18:06:30;11.40;99.90
35804;DHT22;21924;51.934;7.414;2023-03-23T18:09:16;11.30;99.90
35804;DHT22;21924;51.934;7.414;2023-03-23T18:12:00;11.20;99.90
35804;DHT22;21924;51.934;7.414;2023-03-23T18:14:45;11.10;99.90
35804;DHT22;21924;51.934;7.414;2023-03-23T18:17:29;11.00;99.90
35804;DHT22;21924;51.934;7.414;2023-03-23T18:20:13;11.00;99.90
35804;DHT22;21924;51.934;7.414;2023-03-23T18:22:57;11.10;99.90
35804;DHT22;21924;51.934;7.414;2023-03-23T18:25:42;11.10;99.90
35804;DHT22;21924;51.934;7.414;2023-03-23T18:28:26;11.10;99.90
35804;DHT22;21924;51.934;7.414;2023-03-23T18:31:13;11.20;99.90
35804;DHT22;21924;51.934;7.414;2023-03-23T18:33:58;11.20;99.90
35804;DHT22;21924;51.934;7.414;2023-03-23T18:36:42;11.20;99.90
35804;DHT22;21924;51.934;7.414;2023-03-23T18:39:26;11.30;99.90
35804;DHT22;21924;51.934;7.414;2023-03-23T18:42:10;11.30;99.90
35804;DHT22;21924;51.934;7.414;2023-03-23T18:44:55;11.30;99.90
35804;DHT22;21924;51.934;7.414;2023-03-23T18:47:39;11.40;99.90
35804;DHT22;21924;51.934;7.414;2023-03-23T18:50:23;11.40;99.90
35804;DHT22;21924;51.934;7.414;2023-03-23T18:53:07;11.50;99.90
35804;DHT22;21924;51.934;7.414;2023-03-23T18:55:52;11.50;99.90
35804;DHT22;21924;51.934;7.414;2023-03-23T18:58:37;11.50;99.90
35804;DHT22;21924;51.934;7.414;2023-03-23T19:01:22;11.50;99.90
35804;DHT22;21924;51.934;7.414;2023-03-23T19:04:06;11.50;99.90
35804;DHT22;21924;51.934;7.414;2023-03-23T19:06:51;11.40;99.90
35804;DHT22;21924;51.934;7.414;2023-03-23T19:09:35;11.50;99.90
35804;DHT22;21924;51.934;7.414;2023-03-23T19:12:19;11.50;99.90
35804;DHT22;21924;51.934;7.414;2023-03-23T19:15:05;11.50;99.90
35804;DHT22;21924;51.934;7.414;2023-03-23T19:17:50;11.50;99.90